createdAt,value
2022-08-07T00:00:45.394Z,1010.70
2022-08-07T00:02:39.911Z,1010.68
2022-08-07T00:02:46.224Z,1010.69
2022-08-07T00:03:47.305Z,1010.65
2022-08-07T00:04:45.735Z,1010.67
2022-08-07T00:05:46.380Z,1010.61
2022-08-07T00:06:52.313Z,1010.58
2022-08-07T00:07:45.942Z,1010.60
2022-08-07T00:08:46.004Z,1010.58
2022-08-07T00:10:04.664Z,1010.58
2022-08-07T00:10:48.153Z,1010.57
2022-08-07T00:11:53.979Z,1010.58
2022-08-07T00:13:00.748Z,1010.59
2022-08-07T00:13:46.363Z,1010.59
2022-08-07T00:14:46.425Z,1010.60
2022-08-07T00:15:51.029Z,1010.60
2022-08-07T00:16:46.554Z,1010.57
2022-08-07T00:17:46.633Z,1010.60
2022-08-07T00:18:46.729Z,1010.60
2022-08-07T00:20:01.040Z,1010.62
2022-08-07T00:20:46.854Z,1010.58
2022-08-07T00:21:56.288Z,1010.62
2022-08-07T00:22:51.768Z,1010.61
2022-08-07T00:23:47.570Z,1010.57
2022-08-07T00:24:47.161Z,1010.59
2022-08-07T00:25:58.220Z,1010.59
2022-08-07T00:26:59.112Z,1010.61
2022-08-07T00:27:52.501Z,1010.58
2022-08-07T00:28:56.759Z,1010.56
2022-08-07T00:29:47.505Z,1010.55
2022-08-07T00:30:47.554Z,1010.56
2022-08-07T00:31:49.214Z,1010.51
2022-08-07T00:32:47.710Z,1010.52
2022-08-07T00:33:47.971Z,1010.51
2022-08-07T00:34:47.889Z,1010.50
2022-08-07T00:35:49.593Z,1010.52
2022-08-07T00:36:48.041Z,1010.52
2022-08-07T00:37:48.583Z,1010.53
2022-08-07T00:38:48.220Z,1010.50
2022-08-07T00:39:54.519Z,1010.48
2022-08-07T00:40:48.356Z,1010.43
2022-08-07T00:41:53.124Z,1010.39
2022-08-07T00:42:50.227Z,1010.37
2022-08-07T00:44:01.991Z,1010.41
2022-08-07T00:44:48.642Z,1010.40
2022-08-07T00:45:48.707Z,1010.35
2022-08-07T00:46:48.788Z,1010.34
2022-08-07T00:48:07.701Z,1010.31
2022-08-07T00:48:49.955Z,1010.26
2022-08-07T00:50:21.289Z,1010.26
2022-08-07T00:50:51.544Z,1010.28
2022-08-07T00:51:57.696Z,1010.26
2022-08-07T00:52:49.199Z,1010.30
2022-08-07T00:53:50.750Z,1010.25
2022-08-07T00:54:53.828Z,1010.24
2022-08-07T00:56:02.630Z,1010.23
2022-08-07T00:56:49.899Z,1010.24
2022-08-07T00:57:55.929Z,1010.24
2022-08-07T00:58:50.094Z,1010.22
2022-08-07T00:59:49.731Z,1010.24
2022-08-07T01:00:53.549Z,1010.18
2022-08-07T01:01:49.921Z,1010.22
2022-08-07T01:02:49.943Z,1010.18
2022-08-07T01:03:56.206Z,1010.17
2022-08-07T01:04:50.096Z,1010.18
2022-08-07T01:05:51.596Z,1010.16
2022-08-07T01:06:50.256Z,1010.12
2022-08-07T01:07:50.335Z,1010.16
2022-08-07T01:08:53.068Z,1010.15
2022-08-07T01:10:06.253Z,1010.14
2022-08-07T01:10:54.363Z,1010.15
2022-08-07T01:12:09.677Z,1010.14
2022-08-07T01:12:53.570Z,1010.09
2022-08-07T01:13:55.965Z,1010.13
2022-08-07T01:14:50.835Z,1010.14
2022-08-07T01:16:05.078Z,1010.10
2022-08-07T01:16:50.965Z,1010.12
2022-08-07T01:17:51.037Z,1010.14
2022-08-07T01:18:51.115Z,1010.11
2022-08-07T01:19:54.216Z,1010.10
2022-08-07T01:20:57.551Z,1010.10
2022-08-07T01:21:53.356Z,1010.10
2022-08-07T01:23:00.741Z,1010.08
2022-08-07T01:23:51.583Z,1010.06
2022-08-07T01:24:51.625Z,1010.10
2022-08-07T01:25:55.653Z,1010.07
2022-08-07T01:26:52.792Z,1010.10
2022-08-07T01:27:51.863Z,1010.13
2022-08-07T01:28:51.986Z,1010.11
2022-08-07T01:29:51.997Z,1010.18
2022-08-07T01:30:52.175Z,1010.14
2022-08-07T01:31:52.142Z,1010.19
2022-08-07T01:32:52.194Z,1010.16
2022-08-07T01:33:55.625Z,1010.18
2022-08-07T01:34:52.350Z,1010.15
2022-08-07T01:35:54.307Z,1010.15
2022-08-07T01:36:58.129Z,1010.14
2022-08-07T01:37:52.560Z,1010.12
2022-08-07T01:38:52.644Z,1010.10
2022-08-07T01:39:52.829Z,1010.03
2022-08-07T01:40:52.814Z,1010.03
2022-08-07T01:42:07.677Z,1010.04
2022-08-07T01:42:58.496Z,1010.06
2022-08-07T01:43:53.051Z,1010.04
2022-08-07T01:44:53.093Z,1010.09
2022-08-07T01:45:54.565Z,1010.04
2022-08-07T01:46:53.248Z,1010.06
2022-08-07T01:48:29.198Z,1010.09
2022-08-07T01:48:53.438Z,1010.12
2022-08-07T01:49:54.846Z,1010.14
2022-08-07T01:50:53.561Z,1010.17
2022-08-07T01:52:03.710Z,1010.11
2022-08-07T01:52:54.076Z,1010.11
2022-08-07T01:54:12.806Z,1010.12
2022-08-07T01:54:53.907Z,1010.14
2022-08-07T01:55:53.975Z,1010.08
2022-08-07T01:56:54.043Z,1010.13
2022-08-07T01:58:01.173Z,1010.12
2022-08-07T01:58:54.178Z,1010.09
2022-08-07T01:59:54.583Z,1010.12
2022-08-07T02:01:05.045Z,1010.08
2022-08-07T02:02:02.646Z,1010.08
2022-08-07T02:03:12.138Z,1010.12
2022-08-07T02:03:54.597Z,1010.08
2022-08-07T02:04:56.654Z,1010.09
2022-08-07T02:05:59.681Z,1010.10
2022-08-07T02:06:54.724Z,1010.11
2022-08-07T02:07:54.794Z,1010.12
2022-08-07T02:08:54.844Z,1010.09
2022-08-07T02:09:58.698Z,1010.10
2022-08-07T02:10:58.009Z,1010.11
2022-08-07T02:12:03.527Z,1010.11
2022-08-07T02:12:55.149Z,1010.12
2022-08-07T02:13:57.732Z,1010.11
2022-08-07T02:14:55.314Z,1010.10
2022-08-07T02:15:55.360Z,1010.13
2022-08-07T02:16:55.433Z,1010.12
2022-08-07T02:17:55.526Z,1010.11
2022-08-07T02:18:55.586Z,1010.12
2022-08-07T02:20:04.606Z,1010.10
2022-08-07T02:20:57.403Z,1010.13
2022-08-07T02:21:58.660Z,1010.11
2022-08-07T02:22:55.888Z,1010.11
2022-08-07T02:23:55.967Z,1010.13
2022-08-07T02:24:56.063Z,1010.12
2022-08-07T02:26:31.730Z,1010.14
2022-08-07T02:26:56.205Z,1010.11
2022-08-07T02:27:56.301Z,1010.10
2022-08-07T02:28:56.401Z,1010.07
2022-08-07T02:29:56.487Z,1010.05
2022-08-07T02:30:56.549Z,1010.02
2022-08-07T02:31:56.607Z,1010.01
2022-08-07T02:33:07.311Z,1010.04
2022-08-07T02:34:02.778Z,1010.01
2022-08-07T02:34:56.885Z,1010.01
2022-08-07T02:36:30.136Z,1010.04
2022-08-07T02:36:57.001Z,1010.00
2022-08-07T02:37:57.058Z,1010.01
2022-08-07T02:38:57.295Z,1010.05
2022-08-07T02:40:02.175Z,1010.06
2022-08-07T02:40:57.366Z,1010.08
2022-08-07T02:41:57.346Z,1010.05
2022-08-07T02:42:57.425Z,1010.06
2022-08-07T02:43:57.484Z,1010.09
2022-08-07T02:44:58.372Z,1010.05
2022-08-07T02:46:02.138Z,1010.04
2022-08-07T02:46:57.757Z,1010.07
2022-08-07T02:47:59.161Z,1010.03
2022-08-07T02:48:57.880Z,1010.07
2022-08-07T02:49:59.983Z,1010.06
2022-08-07T02:50:58.032Z,1010.04
2022-08-07T02:51:58.073Z,1010.05
2022-08-07T02:53:00.793Z,1010.03
2022-08-07T02:53:58.210Z,1010.02
2022-08-07T02:54:58.303Z,1009.99
2022-08-07T02:56:03.472Z,1009.96
2022-08-07T02:56:58.540Z,1010.00
2022-08-07T02:57:58.498Z,1009.97
2022-08-07T02:58:58.573Z,1010.02
2022-08-07T03:00:01.110Z,1009.99
2022-08-07T03:00:58.765Z,1010.00
2022-08-07T03:02:02.212Z,1010.00
2022-08-07T03:02:58.889Z,1010.02
2022-08-07T03:03:58.939Z,1010.03
2022-08-07T03:04:59.057Z,1010.01
2022-08-07T03:05:59.104Z,1010.00
2022-08-07T03:06:59.185Z,1009.97
2022-08-07T03:08:07.657Z,1009.94
2022-08-07T03:08:59.320Z,1009.96
2022-08-07T03:09:59.389Z,1009.93
2022-08-07T03:10:59.471Z,1009.95
2022-08-07T03:12:02.842Z,1009.92
2022-08-07T03:12:59.606Z,1009.94
2022-08-07T03:14:01.751Z,1009.94
2022-08-07T03:15:02.432Z,1010.00
2022-08-07T03:15:59.837Z,1009.92
2022-08-07T03:16:59.904Z,1009.90
2022-08-07T03:17:59.993Z,1009.88
2022-08-07T03:19:00.077Z,1009.91
2022-08-07T03:20:00.176Z,1009.91
2022-08-07T03:21:00.240Z,1009.92
2022-08-07T03:22:00.292Z,1009.95
2022-08-07T03:23:00.371Z,1009.92
2022-08-07T03:24:18.432Z,1009.97
2022-08-07T03:25:00.573Z,1010.04
2022-08-07T03:26:00.585Z,1009.97
2022-08-07T03:27:00.666Z,1009.97
2022-08-07T03:28:09.494Z,1010.02
2022-08-07T03:29:00.799Z,1009.98
2022-08-07T03:30:00.860Z,1009.93
2022-08-07T03:31:00.952Z,1009.96
2022-08-07T03:32:01.014Z,1009.91
2022-08-07T03:33:01.126Z,1009.92
2022-08-07T03:34:01.168Z,1009.94
2022-08-07T03:35:17.501Z,1009.96
2022-08-07T03:36:01.327Z,1009.93
2022-08-07T03:37:01.410Z,1009.93
2022-08-07T03:38:01.474Z,1009.91
2022-08-07T03:39:05.570Z,1009.92
2022-08-07T03:40:15.468Z,1009.87
2022-08-07T03:41:01.824Z,1009.91
2022-08-07T03:42:01.794Z,1009.92
2022-08-07T03:43:01.882Z,1009.91
2022-08-07T03:44:01.947Z,1009.90
2022-08-07T03:45:02.053Z,1009.93
2022-08-07T03:46:02.805Z,1009.94
2022-08-07T03:47:10.951Z,1009.90
2022-08-07T03:48:02.260Z,1009.86
2022-08-07T03:49:03.524Z,1009.93
2022-08-07T03:50:02.427Z,1009.86
2022-08-07T03:51:02.501Z,1009.88
2022-08-07T03:52:02.569Z,1009.94
2022-08-07T03:53:02.654Z,1009.92
2022-08-07T03:54:33.108Z,1009.89
2022-08-07T03:55:06.796Z,1009.87
2022-08-07T03:56:03.933Z,1009.89
2022-08-07T03:57:03.980Z,1009.85
2022-08-07T03:58:33.428Z,1009.85
2022-08-07T03:59:08.545Z,1009.86
2022-08-07T04:00:04.076Z,1009.84
2022-08-07T04:01:03.363Z,1009.87
2022-08-07T04:02:03.370Z,1009.84
2022-08-07T04:03:03.941Z,1009.86
2022-08-07T04:04:04.991Z,1009.88
2022-08-07T04:05:03.599Z,1009.89
2022-08-07T04:06:03.638Z,1009.89
2022-08-07T04:07:03.749Z,1009.91
2022-08-07T04:08:03.811Z,1009.88
2022-08-07T04:09:03.898Z,1009.89
2022-08-07T04:10:03.969Z,1009.91
2022-08-07T04:12:24.848Z,1009.86
2022-08-07T04:12:32.547Z,1009.82
2022-08-07T04:13:04.160Z,1009.88
2022-08-07T04:14:14.041Z,1009.88
2022-08-07T04:15:04.975Z,1009.92
2022-08-07T04:16:04.415Z,1009.81
2022-08-07T04:17:04.493Z,1009.87
2022-08-07T04:18:56.670Z,1009.84
2022-08-07T04:19:12.798Z,1009.85
2022-08-07T04:20:04.695Z,1009.89
2022-08-07T04:21:04.789Z,1009.84
2022-08-07T04:22:13.253Z,1009.90
2022-08-07T04:23:06.227Z,1009.89
2022-08-07T04:24:07.743Z,1009.93
2022-08-07T04:25:08.784Z,1009.94
2022-08-07T04:26:05.177Z,1009.97
2022-08-07T04:27:05.263Z,1009.98
2022-08-07T04:28:05.345Z,1009.98
2022-08-07T04:29:05.425Z,1009.99
2022-08-07T04:30:13.433Z,1010.00
2022-08-07T04:31:05.586Z,1009.99
2022-08-07T04:32:09.978Z,1010.01
2022-08-07T04:33:07.298Z,1009.95
2022-08-07T04:34:05.856Z,1009.96
2022-08-07T04:35:06.322Z,1009.95
2022-08-07T04:36:06.437Z,1009.95
2022-08-07T04:37:08.057Z,1009.95
2022-08-07T04:38:07.087Z,1009.92
2022-08-07T04:39:06.260Z,1009.91
2022-08-07T04:40:06.318Z,1009.91
2022-08-07T04:41:06.392Z,1009.92
2022-08-07T04:42:06.471Z,1009.90
2022-08-07T04:43:06.562Z,1009.92
2022-08-07T04:44:12.602Z,1009.94
2022-08-07T04:45:08.160Z,1009.91
2022-08-07T04:46:06.781Z,1009.94
2022-08-07T04:47:08.644Z,1009.95
2022-08-07T04:48:10.482Z,1009.96
2022-08-07T04:49:14.862Z,1009.99
2022-08-07T04:50:07.132Z,1010.02
2022-08-07T04:51:09.094Z,1010.04
2022-08-07T04:52:07.275Z,1010.07
2022-08-07T04:53:07.356Z,1010.09
2022-08-07T04:54:07.808Z,1010.09
2022-08-07T04:55:15.333Z,1010.09
2022-08-07T04:58:42.290Z,1010.11
2022-08-07T04:59:18.226Z,1010.17
2022-08-07T05:00:18.967Z,1010.17
2022-08-07T05:00:35.341Z,1010.16
2022-08-07T05:01:30.437Z,1010.17
2022-08-07T05:02:23.691Z,1010.14
2022-08-07T05:04:00.957Z,1010.15
2022-08-07T05:04:23.842Z,1010.18
2022-08-07T05:05:53.082Z,1010.22
2022-08-07T05:06:24.013Z,1010.19
2022-08-07T05:07:27.593Z,1010.21
2022-08-07T05:08:59.696Z,1010.19
2022-08-07T05:09:43.189Z,1010.21
2022-08-07T05:10:24.369Z,1010.14
2022-08-07T05:11:26.273Z,1010.21
2022-08-07T05:12:27.430Z,1010.16
2022-08-07T05:14:55.033Z,1010.19
2022-08-07T05:15:04.794Z,1010.18
2022-08-07T05:15:24.765Z,1010.21
2022-08-07T05:16:24.841Z,1010.21
2022-08-07T05:17:52.931Z,1010.22
2022-08-07T05:18:25.018Z,1010.28
2022-08-07T05:19:32.693Z,1010.25
2022-08-07T05:20:25.699Z,1010.23
2022-08-07T05:21:59.357Z,1010.27
2022-08-07T05:22:26.771Z,1010.27
2022-08-07T05:23:29.159Z,1010.26
2022-08-07T05:24:30.421Z,1010.24
2022-08-07T05:25:37.376Z,1010.26
2022-08-07T05:26:25.655Z,1010.23
2022-08-07T05:28:03.550Z,1010.26
2022-08-07T05:28:26.889Z,1010.28
2022-08-07T05:29:25.849Z,1010.26
2022-08-07T05:30:32.748Z,1010.26
2022-08-07T05:31:35.171Z,1010.26
2022-08-07T05:32:26.105Z,1010.28
2022-08-07T05:33:26.178Z,1010.28
2022-08-07T05:34:27.722Z,1010.28
2022-08-07T05:35:33.600Z,1010.31
2022-08-07T05:36:30.290Z,1010.31
2022-08-07T05:37:26.626Z,1010.28
2022-08-07T05:39:01.206Z,1010.29
2022-08-07T05:40:14.431Z,1010.30
2022-08-07T05:40:26.789Z,1010.26
2022-08-07T05:41:26.831Z,1010.24
2022-08-07T05:42:34.539Z,1010.21
2022-08-07T05:43:50.191Z,1010.23
2022-08-07T05:44:29.706Z,1010.24
2022-08-07T05:45:46.166Z,1010.23
2022-08-07T05:46:27.137Z,1010.27
2022-08-07T05:47:38.646Z,1010.28
2022-08-07T05:48:27.301Z,1010.29
2022-08-07T05:49:27.371Z,1010.30
2022-08-07T05:50:27.470Z,1010.31
2022-08-07T05:51:31.741Z,1010.32
2022-08-07T05:52:32.267Z,1010.38
2022-08-07T05:54:12.677Z,1010.31
2022-08-07T05:54:44.642Z,1010.35
2022-08-07T05:56:03.235Z,1010.37
2022-08-07T05:56:30.263Z,1010.34
2022-08-07T05:57:30.363Z,1010.34
2022-08-07T05:58:35.976Z,1010.34
2022-08-07T05:59:28.150Z,1010.35
2022-08-07T06:00:28.198Z,1010.35
2022-08-07T06:01:35.761Z,1010.30
2022-08-07T06:02:28.845Z,1010.31
2022-08-07T06:03:53.582Z,1010.33
2022-08-07T06:04:30.285Z,1010.35
2022-08-07T06:05:28.756Z,1010.38
2022-08-07T06:06:32.300Z,1010.55
2022-08-07T06:08:14.648Z,1010.62
2022-08-07T06:08:36.061Z,1010.62
2022-08-07T06:10:04.563Z,1010.59
2022-08-07T06:10:28.969Z,1010.62
2022-08-07T06:11:29.022Z,1010.57
2022-08-07T06:12:33.201Z,1010.60
2022-08-07T06:14:10.538Z,1010.70
2022-08-07T06:14:30.396Z,1010.66
2022-08-07T06:15:39.043Z,1010.67
2022-08-07T06:16:29.409Z,1010.67
2022-08-07T06:17:32.098Z,1010.65
2022-08-07T06:18:29.479Z,1010.69
2022-08-07T06:19:57.880Z,1010.71
2022-08-07T06:20:31.842Z,1010.73
2022-08-07T06:22:16.022Z,1010.73
2022-08-07T06:22:29.834Z,1010.73
2022-08-07T06:24:38.695Z,1010.76
2022-08-07T06:25:02.869Z,1010.76
2022-08-07T06:25:34.909Z,1010.79
2022-08-07T06:26:30.130Z,1010.74
2022-08-07T06:28:00.545Z,1010.79
2022-08-07T06:28:30.269Z,1010.77
2022-08-07T06:29:30.344Z,1010.77
2022-08-07T06:30:36.021Z,1010.75
2022-08-07T06:31:46.844Z,1010.71
2022-08-07T06:32:32.681Z,1010.74
2022-08-07T06:33:33.111Z,1010.80
2022-08-07T06:34:30.749Z,1010.79
2022-08-07T06:35:45.933Z,1010.76
2022-08-07T06:36:35.199Z,1010.80
2022-08-07T06:37:44.311Z,1010.76
2022-08-07T06:38:31.043Z,1010.77
2022-08-07T06:40:16.703Z,1010.80
2022-08-07T06:40:35.001Z,1010.79
2022-08-07T06:42:01.116Z,1010.77
2022-08-07T06:42:35.134Z,1010.75
2022-08-07T06:43:39.259Z,1010.73
2022-08-07T06:44:36.604Z,1010.75
2022-08-07T06:45:31.610Z,1010.68
2022-08-07T06:46:35.215Z,1010.68
2022-08-07T06:47:47.893Z,1010.70
2022-08-07T06:48:31.829Z,1010.68
2022-08-07T06:49:31.919Z,1010.67
2022-08-07T06:50:32.008Z,1010.69
2022-08-07T06:51:33.424Z,1010.64
2022-08-07T06:52:35.746Z,1010.61
2022-08-07T06:55:29.757Z,1010.61
2022-08-07T06:56:01.098Z,1010.64
2022-08-07T06:56:07.469Z,1010.66
2022-08-07T06:57:01.929Z,1010.57
2022-08-07T06:58:01.970Z,1010.58
2022-08-07T07:00:14.595Z,1010.58
2022-08-07T07:00:22.517Z,1010.65
2022-08-07T07:01:02.962Z,1010.63
2022-08-07T07:02:02.362Z,1010.63
2022-08-07T07:03:08.783Z,1010.66
2022-08-07T07:04:27.629Z,1010.66
2022-08-07T07:05:02.550Z,1010.64
2022-08-07T07:06:06.258Z,1010.65
2022-08-07T07:07:18.801Z,1010.64
2022-08-07T07:08:06.990Z,1010.64
2022-08-07T07:09:02.825Z,1010.60
2022-08-07T07:10:02.874Z,1010.56
2022-08-07T07:11:13.070Z,1010.56
2022-08-07T07:12:07.646Z,1010.55
2022-08-07T07:13:03.113Z,1010.57
2022-08-07T07:14:03.164Z,1010.58
2022-08-07T07:15:03.654Z,1010.59
2022-08-07T07:16:03.322Z,1010.59
2022-08-07T07:17:03.449Z,1010.59
2022-08-07T07:18:03.501Z,1010.55
2022-08-07T07:19:11.253Z,1010.58
2022-08-07T07:20:03.652Z,1010.58
2022-08-07T07:21:03.975Z,1010.57
2022-08-07T07:22:12.214Z,1010.55
2022-08-07T07:24:09.834Z,1010.59
2022-08-07T07:24:16.587Z,1010.53
2022-08-07T07:26:32.287Z,1010.55
2022-08-07T07:26:38.205Z,1010.57
2022-08-07T07:27:04.233Z,1010.61
2022-08-07T07:28:07.583Z,1010.57
2022-08-07T07:29:38.479Z,1010.55
2022-08-07T07:30:10.110Z,1010.54
2022-08-07T07:31:04.480Z,1010.51
2022-08-07T07:32:04.563Z,1010.46
2022-08-07T07:33:04.632Z,1010.46
2022-08-07T07:34:04.714Z,1010.48
2022-08-07T07:35:04.797Z,1010.51
2022-08-07T07:36:13.368Z,1010.47
2022-08-07T07:37:14.531Z,1010.47
2022-08-07T07:38:05.968Z,1010.49
2022-08-07T07:39:05.234Z,1010.49
2022-08-07T07:40:14.513Z,1010.50
2022-08-07T07:41:05.356Z,1010.44
2022-08-07T07:42:13.639Z,1010.39
2022-08-07T07:43:11.693Z,1010.42
2022-08-07T07:44:17.806Z,1010.46
2022-08-07T07:45:05.694Z,1010.44
2022-08-07T07:46:39.830Z,1010.44
2022-08-07T07:47:14.259Z,1010.40
2022-08-07T07:48:05.909Z,1010.37
2022-08-07T07:50:31.564Z,1010.38
2022-08-07T07:50:41.487Z,1010.37
2022-08-07T07:51:07.580Z,1010.37
2022-08-07T07:52:06.394Z,1010.38
2022-08-07T07:53:06.337Z,1010.36
2022-08-07T07:54:06.406Z,1010.35
2022-08-07T07:55:06.496Z,1010.32
2022-08-07T07:56:06.580Z,1010.36
2022-08-07T07:57:06.675Z,1010.34
2022-08-07T07:58:06.741Z,1010.36
2022-08-07T07:59:06.819Z,1010.34
2022-08-07T08:00:06.873Z,1010.31
2022-08-07T08:02:00.841Z,1010.30
2022-08-07T08:02:10.476Z,1010.27
2022-08-07T08:03:07.300Z,1010.27
2022-08-07T08:04:11.586Z,1010.28
2022-08-07T08:05:14.318Z,1010.28
2022-08-07T08:06:07.354Z,1010.29
2022-08-07T08:07:07.762Z,1010.25
2022-08-07T08:08:07.539Z,1010.27
2022-08-07T08:09:08.134Z,1010.26
2022-08-07T08:10:07.680Z,1010.28
2022-08-07T08:11:08.174Z,1010.22
2022-08-07T08:12:07.832Z,1010.23
2022-08-07T08:13:10.579Z,1010.26
2022-08-07T08:14:08.009Z,1010.23
2022-08-07T08:15:08.087Z,1010.21
2022-08-07T08:16:08.143Z,1010.22
2022-08-07T08:17:55.781Z,1010.18
2022-08-07T08:18:17.936Z,1010.18
2022-08-07T08:19:17.403Z,1010.20
2022-08-07T08:20:19.244Z,1010.17
2022-08-07T08:21:08.537Z,1010.18
2022-08-07T08:22:09.752Z,1010.18
2022-08-07T08:23:09.282Z,1010.17
2022-08-07T08:24:08.762Z,1010.15
2022-08-07T08:25:24.808Z,1010.13
2022-08-07T08:26:08.937Z,1010.14
2022-08-07T08:27:09.250Z,1010.14
2022-08-07T08:28:09.078Z,1010.09
2022-08-07T08:29:09.145Z,1010.10
2022-08-07T08:30:09.232Z,1010.09
2022-08-07T08:31:16.018Z,1010.09
2022-08-07T08:32:18.543Z,1010.11
2022-08-07T08:33:15.277Z,1010.05
2022-08-07T08:34:09.579Z,1010.05
2022-08-07T08:35:09.658Z,1010.07
2022-08-07T08:36:09.727Z,1010.06
2022-08-07T08:37:59.452Z,1010.06
2022-08-07T08:38:10.046Z,1010.01
2022-08-07T08:39:10.043Z,1010.05
2022-08-07T08:40:10.057Z,1010.01
2022-08-07T08:41:10.154Z,1010.02
2022-08-07T08:42:10.227Z,1009.98
2022-08-07T08:43:10.332Z,1009.99
2022-08-07T08:44:10.404Z,1009.99
2022-08-07T08:45:13.290Z,1009.98
2022-08-07T08:46:10.485Z,1009.94
2022-08-07T08:47:11.301Z,1009.96
2022-08-07T08:48:10.868Z,1009.93
2022-08-07T08:49:10.726Z,1009.96
2022-08-07T08:50:12.482Z,1009.93
2022-08-07T08:51:14.286Z,1009.96
2022-08-07T08:52:14.480Z,1009.93
2022-08-07T08:53:11.114Z,1009.93
2022-08-07T08:54:11.149Z,1009.91
2022-08-07T08:55:20.779Z,1009.87
2022-08-07T08:56:11.300Z,1009.86
2022-08-07T08:57:11.371Z,1009.88
2022-08-07T08:58:13.033Z,1009.89
2022-08-07T08:59:13.627Z,1009.90
2022-08-07T09:00:11.617Z,1009.89
2022-08-07T09:01:15.313Z,1009.86
2022-08-07T09:02:11.827Z,1009.89
2022-08-07T09:03:11.891Z,1009.88
2022-08-07T09:04:13.421Z,1009.84
2022-08-07T09:05:12.023Z,1009.82
2022-08-07T09:06:12.086Z,1009.77
2022-08-07T09:07:12.169Z,1009.80
2022-08-07T09:08:12.241Z,1009.77
2022-08-07T09:09:20.598Z,1009.75
2022-08-07T09:10:12.375Z,1009.77
2022-08-07T09:11:13.971Z,1009.76
2022-08-07T09:12:19.948Z,1009.77
2022-08-07T09:13:14.723Z,1009.75
2022-08-07T09:14:12.673Z,1009.76
2022-08-07T09:16:22.813Z,1009.75
2022-08-07T09:16:31.379Z,1009.76
2022-08-07T09:17:12.919Z,1009.76
2022-08-07T09:18:15.815Z,1009.77
2022-08-07T09:19:52.764Z,1009.75
2022-08-07T09:20:34.663Z,1009.82
2022-08-07T09:21:13.838Z,1009.77
2022-08-07T09:24:28.740Z,1009.77
2022-08-07T09:24:59.584Z,1009.77
2022-08-07T09:25:11.841Z,1009.72
2022-08-07T09:25:55.884Z,1009.71
2022-08-07T09:26:57.089Z,1009.69
2022-08-07T09:28:01.195Z,1009.72
2022-08-07T09:30:04.954Z,1009.69
2022-08-07T09:30:12.319Z,1009.66
2022-08-07T09:30:56.251Z,1009.70
2022-08-07T09:31:56.348Z,1009.65
2022-08-07T09:32:56.402Z,1009.64
2022-08-07T09:33:57.871Z,1009.65
2022-08-07T09:34:56.539Z,1009.61
2022-08-07T09:36:05.188Z,1009.66
2022-08-07T09:36:56.711Z,1009.65
2022-08-07T09:37:56.789Z,1009.64
2022-08-07T09:38:56.863Z,1009.62
2022-08-07T09:39:58.023Z,1009.62
2022-08-07T09:40:57.032Z,1009.60
2022-08-07T09:42:03.199Z,1009.62
2022-08-07T09:42:57.154Z,1009.54
2022-08-07T09:44:06.424Z,1009.56
2022-08-07T09:47:24.644Z,1009.52
2022-08-07T09:47:59.565Z,1009.52
2022-08-07T09:48:11.908Z,1009.49
2022-08-07T09:50:02.859Z,1009.45
2022-08-07T09:50:23.844Z,1009.46
2022-08-07T09:50:52.280Z,1009.46
2022-08-07T09:52:09.786Z,1009.48
2022-08-07T09:52:52.461Z,1009.46
2022-08-07T09:53:57.064Z,1009.43
2022-08-07T09:54:52.193Z,1009.45
2022-08-07T09:56:03.069Z,1009.47
2022-08-07T09:56:52.445Z,1009.44
2022-08-07T09:57:53.991Z,1009.44
2022-08-07T09:58:52.515Z,1009.39
2022-08-07T10:00:01.407Z,1009.50
2022-08-07T10:00:52.718Z,1009.41
2022-08-07T10:01:54.537Z,1009.36
2022-08-07T10:02:55.380Z,1009.36
2022-08-07T10:04:05.050Z,1009.38
2022-08-07T10:04:54.954Z,1009.37
2022-08-07T10:05:59.165Z,1009.35
2022-08-07T10:06:55.612Z,1009.35
2022-08-07T10:07:55.352Z,1009.34
2022-08-07T10:08:53.416Z,1009.30
2022-08-07T10:10:01.117Z,1009.25
2022-08-07T10:11:59.657Z,1009.28
2022-08-07T10:12:15.387Z,1009.27
2022-08-07T10:12:53.943Z,1009.18
2022-08-07T10:14:00.751Z,1009.24
2022-08-07T10:14:55.019Z,1009.22
2022-08-07T10:15:53.940Z,1009.20
2022-08-07T10:16:54.054Z,1009.20
2022-08-07T10:18:03.067Z,1009.18
2022-08-07T10:18:54.192Z,1009.14
2022-08-07T10:19:54.232Z,1009.15
2022-08-07T10:20:54.314Z,1009.16
2022-08-07T10:22:14.780Z,1009.11
2022-08-07T10:22:54.509Z,1009.13
2022-08-07T10:24:06.480Z,1009.13
2022-08-07T10:24:54.668Z,1009.18
2022-08-07T10:25:54.711Z,1009.11
2022-08-07T10:26:54.789Z,1009.14
2022-08-07T10:27:55.994Z,1009.12
2022-08-07T10:28:54.967Z,1009.07
2022-08-07T10:29:55.012Z,1009.12
2022-08-07T10:30:55.084Z,1009.10
2022-08-07T10:31:55.158Z,1009.08
2022-08-07T10:32:59.634Z,1009.09
2022-08-07T10:34:14.068Z,1009.12
2022-08-07T10:34:55.421Z,1009.05
2022-08-07T10:36:10.825Z,1009.03
2022-08-07T10:36:55.580Z,1008.98
2022-08-07T10:38:09.851Z,1008.98
2022-08-07T10:38:55.759Z,1008.93
2022-08-07T10:39:57.470Z,1008.92
2022-08-07T10:40:55.926Z,1008.89
2022-08-07T10:42:00.259Z,1008.87
2022-08-07T10:42:56.079Z,1008.91
2022-08-07T10:44:02.290Z,1008.92
2022-08-07T10:44:56.239Z,1008.91
2022-08-07T10:45:58.160Z,1008.91
2022-08-07T10:46:56.373Z,1008.98
2022-08-07T10:48:02.789Z,1008.91
2022-08-07T10:48:56.552Z,1008.99
2022-08-07T10:49:56.585Z,1008.91
2022-08-07T10:50:56.662Z,1008.92
2022-08-07T10:52:01.728Z,1008.90
2022-08-07T10:52:56.851Z,1008.88
2022-08-07T10:54:00.103Z,1008.85
2022-08-07T10:55:07.923Z,1008.91
2022-08-07T10:55:57.087Z,1008.88
2022-08-07T10:56:57.162Z,1008.81
2022-08-07T10:57:57.234Z,1008.85
2022-08-07T10:58:59.382Z,1008.83
2022-08-07T10:59:57.365Z,1008.77
2022-08-07T11:00:57.515Z,1008.71
2022-08-07T11:02:04.765Z,1008.78
2022-08-07T11:02:57.699Z,1008.78
2022-08-07T11:04:11.257Z,1008.73
2022-08-07T11:04:57.832Z,1008.71
2022-08-07T11:05:57.867Z,1008.75
2022-08-07T11:06:57.947Z,1008.76
2022-08-07T11:08:01.344Z,1008.73
2022-08-07T11:08:58.138Z,1008.75
2022-08-07T11:10:07.107Z,1008.76
2022-08-07T11:10:59.990Z,1008.75
2022-08-07T11:11:59.188Z,1008.71
2022-08-07T11:13:01.602Z,1008.71
2022-08-07T11:14:46.452Z,1008.67
2022-08-07T11:15:09.607Z,1008.64
2022-08-07T11:15:58.646Z,1008.64
2022-08-07T11:17:01.988Z,1008.65
2022-08-07T11:18:03.672Z,1008.62
2022-08-07T11:18:58.888Z,1008.63
2022-08-07T11:19:58.968Z,1008.62
2022-08-07T11:20:59.015Z,1008.56
2022-08-07T11:22:00.209Z,1008.59
2022-08-07T11:22:59.162Z,1008.54
2022-08-07T11:23:59.256Z,1008.56
2022-08-07T11:24:59.303Z,1008.52
2022-08-07T11:26:06.428Z,1008.50
2022-08-07T11:27:00.450Z,1008.50
2022-08-07T11:28:01.230Z,1008.49
2022-08-07T11:28:59.658Z,1008.47
2022-08-07T11:30:17.917Z,1008.48
2022-08-07T11:30:59.807Z,1008.47
2022-08-07T11:31:59.886Z,1008.43
2022-08-07T11:32:59.950Z,1008.47
2022-08-07T11:34:00.832Z,1008.45
2022-08-07T11:35:00.102Z,1008.43
2022-08-07T11:36:01.353Z,1008.40
2022-08-07T11:37:00.645Z,1008.41
2022-08-07T11:38:10.401Z,1008.39
2022-08-07T11:39:00.503Z,1008.37
2022-08-07T11:40:03.514Z,1008.44
2022-08-07T11:41:00.545Z,1008.44
2022-08-07T11:42:03.028Z,1008.42
2022-08-07T11:43:00.674Z,1008.39
2022-08-07T11:44:11.876Z,1008.42
2022-08-07T11:45:00.819Z,1008.42
2022-08-07T11:46:00.890Z,1008.41
2022-08-07T11:47:00.969Z,1008.38
2022-08-07T11:48:03.406Z,1008.38
2022-08-07T11:49:50.216Z,1008.32
2022-08-07T11:50:32.274Z,1008.28
2022-08-07T11:51:01.323Z,1008.26
2022-08-07T11:52:01.404Z,1008.29
2022-08-07T11:53:01.465Z,1008.29
2022-08-07T11:54:03.134Z,1008.26
2022-08-07T11:55:01.610Z,1008.31
2022-08-07T11:56:24.770Z,1008.29
2022-08-07T11:57:01.762Z,1008.30
2022-08-07T11:58:02.103Z,1008.28
2022-08-07T11:59:01.946Z,1008.29
2022-08-07T12:00:11.218Z,1008.27
2022-08-07T12:01:05.161Z,1008.26
2022-08-07T12:02:02.212Z,1008.27
2022-08-07T12:03:02.274Z,1008.24
2022-08-07T12:04:02.350Z,1008.18
2022-08-07T12:05:02.399Z,1008.24
2022-08-07T12:06:02.476Z,1008.18
2022-08-07T12:07:09.129Z,1008.14
2022-08-07T12:08:04.025Z,1008.16
2022-08-07T12:09:02.742Z,1008.14
2022-08-07T12:10:05.591Z,1008.13